sensor_id;sensor_type;location;lat;lon;timestamp;P1;durP1;ratioP1;P2;durP2;ratioP2
64375;SDS011;50700;55.416;12.952;2023-06-24T00:00:56;12.30;;;5.32;;
64375;SDS011;50700;55.416;12.952;2023-06-24T00:03:22;7.75;;;4.85;;
64375;SDS011;50700;55.416;12.952;2023-06-24T00:05:47;7.60;;;4.25;;
64375;SDS011;50700;55.416;12.952;2023-06-24T00:08:18;8.68;;;4.90;;
64375;SDS011;50700;55.416;12.952;2023-06-24T00:10:45;7.80;;;5.25;;
64375;SDS011;50700;55.416;12.952;2023-06-24T00:13:11;9.00;;;5.20;;
64375;SDS011;50700;55.416;12.952;2023-06-24T00:15:36;7.40;;;4.88;;
64375;SDS011;50700;55.416;12.952;2023-06-24T00:18:01;13.10;;;5.68;;
64375;SDS011;50700;55.416;12.952;2023-06-24T00:20:30;8.38;;;5.22;;
64375;SDS011;50700;55.416;12.952;2023-06-24T00:22:56;8.20;;;4.38;;
64375;SDS011;50700;55.416;12.952;2023-06-24T00:25:21;9.85;;;6.25;;
64375;SDS011;50700;55.416;12.952;2023-06-24T00:27:46;9.23;;;6.38;;
64375;SDS011;50700;55.416;12.952;2023-06-24T00:30:12;12.48;;;6.32;;
64375;SDS011;50700;55.416;12.952;2023-06-24T00:32:37;10.45;;;6.18;;
64375;SDS011;50700;55.416;12.952;2023-06-24T00:35:03;9.85;;;5.90;;
64375;SDS011;50700;55.416;12.952;2023-06-24T00:37:28;10.52;;;5.65;;
64375;SDS011;50700;55.416;12.952;2023-06-24T00:39:54;10.98;;;6.38;;
64375;SDS011;50700;55.416;12.952;2023-06-24T00:42:19;10.70;;;6.07;;
64375;SDS011;50700;55.416;12.952;2023-06-24T00:44:44;13.13;;;6.40;;
64375;SDS011;50700;55.416;12.952;2023-06-24T00:47:10;10.57;;;5.53;;
64375;SDS011;50700;55.416;12.952;2023-06-24T00:49:36;12.18;;;6.35;;
64375;SDS011;50700;55.416;12.952;2023-06-24T00:52:01;11.00;;;6.07;;
64375;SDS011;50700;55.416;12.952;2023-06-24T00:54:27;9.55;;;5.60;;
64375;SDS011;50700;55.416;12.952;2023-06-24T00:56:57;10.73;;;5.90;;
64375;SDS011;50700;55.416;12.952;2023-06-24T00:59:25;12.63;;;5.45;;
64375;SDS011;50700;55.416;12.952;2023-06-24T01:01:55;10.60;;;6.10;;
64375;SDS011;50700;55.416;12.952;2023-06-24T01:04:20;13.48;;;5.85;;
64375;SDS011;50700;55.416;12.952;2023-06-24T01:06:46;9.75;;;5.72;;
64375;SDS011;50700;55.416;12.952;2023-06-24T01:09:11;10.45;;;5.22;;
64375;SDS011;50700;55.416;12.952;2023-06-24T01:11:39;11.35;;;5.88;;
64375;SDS011;50700;55.416;12.952;2023-06-24T01:14:04;11.13;;;5.25;;
64375;SDS011;50700;55.416;12.952;2023-06-24T01:19:04;13.32;;;5.53;;
64375;SDS011;50700;55.416;12.952;2023-06-24T01:21:39;9.07;;;5.00;;
64375;SDS011;50700;55.416;12.952;2023-06-24T01:29:51;10.13;;;5.75;;
64375;SDS011;50700;55.416;12.952;2023-06-24T01:33:04;8.98;;;5.68;;
64375;SDS011;50700;55.416;12.952;2023-06-24T01:35:07;9.15;;;6.32;;
64375;SDS011;50700;55.416;12.952;2023-06-24T01:37:46;8.98;;;5.57;;
64375;SDS011;50700;55.416;12.952;2023-06-24T01:40:39;11.30;;;6.03;;
64375;SDS011;50700;55.416;12.952;2023-06-24T01:43:08;8.98;;;5.72;;
64375;SDS011;50700;55.416;12.952;2023-06-24T01:45:45;9.10;;;5.78;;
64375;SDS011;50700;55.416;12.952;2023-06-24T01:48:15;9.30;;;5.35;;
64375;SDS011;50700;55.416;12.952;2023-06-24T01:53:29;13.70;;;5.65;;
64375;SDS011;50700;55.416;12.952;2023-06-24T01:55:59;11.00;;;5.68;;
64375;SDS011;50700;55.416;12.952;2023-06-24T01:58:25;10.38;;;6.20;;
64375;SDS011;50700;55.416;12.952;2023-06-24T02:00:51;10.80;;;5.63;;
64375;SDS011;50700;55.416;12.952;2023-06-24T02:03:18;14.48;;;6.47;;
64375;SDS011;50700;55.416;12.952;2023-06-24T02:05:44;11.85;;;5.90;;
64375;SDS011;50700;55.416;12.952;2023-06-24T02:08:11;9.32;;;5.18;;
64375;SDS011;50700;55.416;12.952;2023-06-24T02:10:39;11.63;;;6.45;;
64375;SDS011;50700;55.416;12.952;2023-06-24T02:13:05;11.20;;;5.60;;
64375;SDS011;50700;55.416;12.952;2023-06-24T02:15:31;13.75;;;6.75;;
64375;SDS011;50700;55.416;12.952;2023-06-24T02:17:56;11.73;;;6.03;;
64375;SDS011;50700;55.416;12.952;2023-06-24T02:20:22;13.15;;;7.10;;
64375;SDS011;50700;55.416;12.952;2023-06-24T02:22:52;16.52;;;6.57;;
64375;SDS011;50700;55.416;12.952;2023-06-24T02:25:18;11.48;;;6.28;;
64375;SDS011;50700;55.416;12.952;2023-06-24T02:27:44;10.48;;;5.88;;
64375;SDS011;50700;55.416;12.952;2023-06-24T02:30:09;12.55;;;6.35;;
64375;SDS011;50700;55.416;12.952;2023-06-24T02:32:36;11.27;;;5.97;;
64375;SDS011;50700;55.416;12.952;2023-06-24T02:35:03;9.73;;;5.80;;
64375;SDS011;50700;55.416;12.952;2023-06-24T02:37:29;13.45;;;6.28;;
64375;SDS011;50700;55.416;12.952;2023-06-24T02:39:54;12.20;;;5.70;;
64375;SDS011;50700;55.416;12.952;2023-06-24T02:42:20;11.00;;;6.35;;
64375;SDS011;50700;55.416;12.952;2023-06-24T02:44:46;23.15;;;6.68;;
64375;SDS011;50700;55.416;12.952;2023-06-24T02:47:14;14.13;;;6.35;;
64375;SDS011;50700;55.416;12.952;2023-06-24T02:49:40;11.90;;;6.15;;
64375;SDS011;50700;55.416;12.952;2023-06-24T02:52:07;11.15;;;6.55;;
64375;SDS011;50700;55.416;12.952;2023-06-24T02:54:32;8.75;;;5.97;;
64375;SDS011;50700;55.416;12.952;2023-06-24T02:56:58;9.20;;;5.97;;
64375;SDS011;50700;55.416;12.952;2023-06-24T02:59:24;15.18;;;6.43;;
64375;SDS011;50700;55.416;12.952;2023-06-24T03:01:50;12.55;;;6.78;;
64375;SDS011;50700;55.416;12.952;2023-06-24T03:04:17;9.95;;;5.93;;
64375;SDS011;50700;55.416;12.952;2023-06-24T03:06:42;11.63;;;6.25;;
64375;SDS011;50700;55.416;12.952;2023-06-24T03:09:08;12.02;;;6.80;;
64375;SDS011;50700;55.416;12.952;2023-06-24T03:11:42;11.55;;;6.70;;
64375;SDS011;50700;55.416;12.952;2023-06-24T03:14:08;12.15;;;6.30;;
64375;SDS011;50700;55.416;12.952;2023-06-24T03:16:34;11.13;;;6.22;;
64375;SDS011;50700;55.416;12.952;2023-06-24T03:18:59;14.13;;;6.63;;
64375;SDS011;50700;55.416;12.952;2023-06-24T03:21:25;14.60;;;6.47;;
64375;SDS011;50700;55.416;12.952;2023-06-24T03:23:56;15.10;;;6.40;;
64375;SDS011;50700;55.416;12.952;2023-06-24T03:26:34;9.73;;;5.93;;
64375;SDS011;50700;55.416;12.952;2023-06-24T03:28:59;12.88;;;6.25;;
64375;SDS011;50700;55.416;12.952;2023-06-24T03:31:25;13.18;;;6.38;;
64375;SDS011;50700;55.416;12.952;2023-06-24T03:33:50;11.90;;;6.43;;
64375;SDS011;50700;55.416;12.952;2023-06-24T03:36:15;12.20;;;6.43;;
64375;SDS011;50700;55.416;12.952;2023-06-24T03:38:41;11.60;;;6.47;;
64375;SDS011;50700;55.416;12.952;2023-06-24T03:41:06;12.68;;;6.80;;
64375;SDS011;50700;55.416;12.952;2023-06-24T03:43:32;10.25;;;6.32;;
64375;SDS011;50700;55.416;12.952;2023-06-24T03:45:57;11.48;;;5.93;;
64375;SDS011;50700;55.416;12.952;2023-06-24T03:48:23;8.95;;;6.25;;
64375;SDS011;50700;55.416;12.952;2023-06-24T03:50:48;10.57;;;5.78;;
64375;SDS011;50700;55.416;12.952;2023-06-24T03:53:13;11.05;;;6.20;;
64375;SDS011;50700;55.416;12.952;2023-06-24T03:55:38;12.23;;;5.60;;
64375;SDS011;50700;55.416;12.952;2023-06-24T03:58:04;10.48;;;5.75;;
64375;SDS011;50700;55.416;12.952;2023-06-24T04:00:29;10.18;;;5.20;;
64375;SDS011;50700;55.416;12.952;2023-06-24T04:02:54;11.15;;;5.55;;
64375;SDS011;50700;55.416;12.952;2023-06-24T04:05:20;7.32;;;5.40;;
64375;SDS011;50700;55.416;12.952;2023-06-24T04:07:45;10.45;;;5.53;;
64375;SDS011;50700;55.416;12.952;2023-06-24T04:10:12;9.70;;;5.60;;
64375;SDS011;50700;55.416;12.952;2023-06-24T04:12:37;10.57;;;5.93;;
64375;SDS011;50700;55.416;12.952;2023-06-24T04:15:03;8.80;;;5.13;;
64375;SDS011;50700;55.416;12.952;2023-06-24T04:17:29;18.40;;;7.95;;
64375;SDS011;50700;55.416;12.952;2023-06-24T04:19:55;12.07;;;6.43;;
64375;SDS011;50700;55.416;12.952;2023-06-24T04:22:20;9.35;;;5.80;;
64375;SDS011;50700;55.416;12.952;2023-06-24T04:24:45;11.98;;;6.13;;
64375;SDS011;50700;55.416;12.952;2023-06-24T04:27:10;12.20;;;6.07;;
64375;SDS011;50700;55.416;12.952;2023-06-24T04:29:36;12.70;;;7.05;;
64375;SDS011;50700;55.416;12.952;2023-06-24T04:32:02;9.02;;;5.45;;
64375;SDS011;50700;55.416;12.952;2023-06-24T04:34:27;10.63;;;6.05;;
64375;SDS011;50700;55.416;12.952;2023-06-24T04:36:52;10.80;;;5.95;;
64375;SDS011;50700;55.416;12.952;2023-06-24T04:39:18;9.15;;;5.68;;
64375;SDS011;50700;55.416;12.952;2023-06-24T04:41:43;9.95;;;6.30;;
64375;SDS011;50700;55.416;12.952;2023-06-24T04:44:09;12.43;;;6.97;;
64375;SDS011;50700;55.416;12.952;2023-06-24T04:46:34;12.73;;;6.40;;
64375;SDS011;50700;55.416;12.952;2023-06-24T04:49:00;15.73;;;7.03;;
64375;SDS011;50700;55.416;12.952;2023-06-24T04:51:25;10.85;;;5.72;;
64375;SDS011;50700;55.416;12.952;2023-06-24T04:53:51;12.32;;;5.90;;
64375;SDS011;50700;55.416;12.952;2023-06-24T04:56:16;12.77;;;6.32;;
64375;SDS011;50700;55.416;12.952;2023-06-24T04:58:41;11.65;;;6.30;;
64375;SDS011;50700;55.416;12.952;2023-06-24T05:01:07;9.77;;;6.03;;
64375;SDS011;50700;55.416;12.952;2023-06-24T05:03:32;12.77;;;5.85;;
64375;SDS011;50700;55.416;12.952;2023-06-24T05:05:58;10.65;;;5.70;;
64375;SDS011;50700;55.416;12.952;2023-06-24T05:08:24;13.18;;;7.30;;
64375;SDS011;50700;55.416;12.952;2023-06-24T05:10:49;15.35;;;6.50;;
64375;SDS011;50700;55.416;12.952;2023-06-24T05:13:14;12.25;;;6.65;;
64375;SDS011;50700;55.416;12.952;2023-06-24T05:15:40;10.52;;;5.88;;
64375;SDS011;50700;55.416;12.952;2023-06-24T05:18:05;8.98;;;6.05;;
64375;SDS011;50700;55.416;12.952;2023-06-24T05:20:31;14.35;;;6.93;;
64375;SDS011;50700;55.416;12.952;2023-06-24T05:22:56;12.82;;;6.03;;
64375;SDS011;50700;55.416;12.952;2023-06-24T05:25:21;11.70;;;5.82;;
64375;SDS011;50700;55.416;12.952;2023-06-24T05:27:47;10.65;;;6.15;;
64375;SDS011;50700;55.416;12.952;2023-06-24T05:30:13;11.25;;;6.63;;
64375;SDS011;50700;55.416;12.952;2023-06-24T05:32:39;10.90;;;5.90;;
64375;SDS011;50700;55.416;12.952;2023-06-24T05:35:04;9.52;;;5.95;;
64375;SDS011;50700;55.416;12.952;2023-06-24T05:37:30;12.90;;;6.18;;
64375;SDS011;50700;55.416;12.952;2023-06-24T05:39:55;9.02;;;5.82;;
64375;SDS011;50700;55.416;12.952;2023-06-24T05:42:22;12.10;;;6.05;;
64375;SDS011;50700;55.416;12.952;2023-06-24T05:44:48;8.63;;;5.38;;
64375;SDS011;50700;55.416;12.952;2023-06-24T05:47:13;8.48;;;5.70;;
64375;SDS011;50700;55.416;12.952;2023-06-24T05:49:39;11.27;;;5.82;;
64375;SDS011;50700;55.416;12.952;2023-06-24T05:52:05;8.68;;;4.93;;
64375;SDS011;50700;55.416;12.952;2023-06-24T05:54:30;13.65;;;5.97;;
64375;SDS011;50700;55.416;12.952;2023-06-24T05:56:55;8.63;;;5.28;;
64375;SDS011;50700;55.416;12.952;2023-06-24T05:59:21;10.38;;;5.93;;
64375;SDS011;50700;55.416;12.952;2023-06-24T06:01:46;8.65;;;5.72;;
64375;SDS011;50700;55.416;12.952;2023-06-24T06:04:11;9.05;;;5.65;;
64375;SDS011;50700;55.416;12.952;2023-06-24T06:06:37;10.73;;;5.25;;
64375;SDS011;50700;55.416;12.952;2023-06-24T06:09:03;8.32;;;5.35;;
64375;SDS011;50700;55.416;12.952;2023-06-24T06:11:28;10.25;;;5.47;;
64375;SDS011;50700;55.416;12.952;2023-06-24T06:13:54;9.07;;;5.57;;
64375;SDS011;50700;55.416;12.952;2023-06-24T06:16:19;9.30;;;5.22;;
64375;SDS011;50700;55.416;12.952;2023-06-24T06:18:45;10.50;;;5.63;;
64375;SDS011;50700;55.416;12.952;2023-06-24T06:21:10;9.65;;;5.13;;
64375;SDS011;50700;55.416;12.952;2023-06-24T06:23:36;12.95;;;5.43;;
64375;SDS011;50700;55.416;12.952;2023-06-24T06:26:01;10.68;;;5.50;;
64375;SDS011;50700;55.416;12.952;2023-06-24T06:28:27;10.73;;;5.07;;
64375;SDS011;50700;55.416;12.952;2023-06-24T06:30:52;9.25;;;5.72;;
64375;SDS011;50700;55.416;12.952;2023-06-24T06:33:18;10.35;;;5.60;;
64375;SDS011;50700;55.416;12.952;2023-06-24T06:35:44;8.93;;;5.25;;
64375;SDS011;50700;55.416;12.952;2023-06-24T06:38:10;15.05;;;6.78;;
64375;SDS011;50700;55.416;12.952;2023-06-24T06:40:35;13.77;;;5.68;;
64375;SDS011;50700;55.416;12.952;2023-06-24T06:43:00;8.57;;;5.18;;
64375;SDS011;50700;55.416;12.952;2023-06-24T06:45:26;10.27;;;5.43;;
64375;SDS011;50700;55.416;12.952;2023-06-24T06:47:51;11.77;;;5.07;;
64375;SDS011;50700;55.416;12.952;2023-06-24T06:50:17;10.02;;;5.47;;
64375;SDS011;50700;55.416;12.952;2023-06-24T06:52:42;8.95;;;5.20;;
64375;SDS011;50700;55.416;12.952;2023-06-24T06:55:08;7.32;;;5.28;;
64375;SDS011;50700;55.416;12.952;2023-06-24T06:57:34;8.32;;;5.40;;
64375;SDS011;50700;55.416;12.952;2023-06-24T06:59:59;7.78;;;5.47;;
64375;SDS011;50700;55.416;12.952;2023-06-24T07:02:25;8.15;;;5.25;;
64375;SDS011;50700;55.416;12.952;2023-06-24T07:04:50;8.60;;;5.55;;
64375;SDS011;50700;55.416;12.952;2023-06-24T07:07:16;12.35;;;5.50;;
64375;SDS011;50700;55.416;12.952;2023-06-24T07:09:41;8.98;;;5.30;;
64375;SDS011;50700;55.416;12.952;2023-06-24T07:12:07;8.32;;;4.90;;
64375;SDS011;50700;55.416;12.952;2023-06-24T07:14:32;9.52;;;5.80;;
64375;SDS011;50700;55.416;12.952;2023-06-24T07:16:58;9.70;;;5.95;;
64375;SDS011;50700;55.416;12.952;2023-06-24T07:19:23;9.32;;;5.53;;
64375;SDS011;50700;55.416;12.952;2023-06-24T07:21:48;9.50;;;5.20;;
64375;SDS011;50700;55.416;12.952;2023-06-24T07:24:14;8.70;;;5.60;;
64375;SDS011;50700;55.416;12.952;2023-06-24T07:26:39;7.45;;;5.13;;
64375;SDS011;50700;55.416;12.952;2023-06-24T07:29:08;12.82;;;5.82;;
64375;SDS011;50700;55.416;12.952;2023-06-24T07:31:34;10.07;;;6.28;;
64375;SDS011;50700;55.416;12.952;2023-06-24T07:33:59;9.82;;;5.75;;
64375;SDS011;50700;55.416;12.952;2023-06-24T07:36:25;8.00;;;5.05;;
64375;SDS011;50700;55.416;12.952;2023-06-24T07:38:50;7.43;;;5.32;;
64375;SDS011;50700;55.416;12.952;2023-06-24T07:41:15;14.35;;;5.30;;
64375;SDS011;50700;55.416;12.952;2023-06-24T07:43:41;8.05;;;4.68;;
64375;SDS011;50700;55.416;12.952;2023-06-24T07:46:06;10.00;;;5.03;;
64375;SDS011;50700;55.416;12.952;2023-06-24T07:48:32;10.13;;;5.40;;
64375;SDS011;50700;55.416;12.952;2023-06-24T07:50:57;10.07;;;5.78;;
64375;SDS011;50700;55.416;12.952;2023-06-24T07:53:23;8.82;;;5.55;;
64375;SDS011;50700;55.416;12.952;2023-06-24T07:55:48;14.70;;;5.90;;
64375;SDS011;50700;55.416;12.952;2023-06-24T07:58:14;8.90;;;5.00;;
64375;SDS011;50700;55.416;12.952;2023-06-24T08:00:39;8.02;;;4.68;;
64375;SDS011;50700;55.416;12.952;2023-06-24T08:03:04;7.85;;;4.90;;
64375;SDS011;50700;55.416;12.952;2023-06-24T08:05:30;8.10;;;5.30;;
64375;SDS011;50700;55.416;12.952;2023-06-24T08:07:55;7.57;;;4.80;;
64375;SDS011;50700;55.416;12.952;2023-06-24T08:10:21;10.73;;;5.85;;
64375;SDS011;50700;55.416;12.952;2023-06-24T08:12:46;10.02;;;4.80;;
64375;SDS011;50700;55.416;12.952;2023-06-24T08:15:12;8.18;;;5.13;;
64375;SDS011;50700;55.416;12.952;2023-06-24T08:17:38;8.80;;;5.78;;
64375;SDS011;50700;55.416;12.952;2023-06-24T08:20:03;9.10;;;5.13;;
64375;SDS011;50700;55.416;12.952;2023-06-24T08:22:29;11.32;;;5.18;;
64375;SDS011;50700;55.416;12.952;2023-06-24T08:24:54;8.93;;;5.30;;
64375;SDS011;50700;55.416;12.952;2023-06-24T08:27:20;10.98;;;5.40;;
64375;SDS011;50700;55.416;12.952;2023-06-24T08:29:45;7.88;;;5.22;;
64375;SDS011;50700;55.416;12.952;2023-06-24T08:32:11;10.02;;;5.43;;
64375;SDS011;50700;55.416;12.952;2023-06-24T08:34:36;9.65;;;5.03;;
64375;SDS011;50700;55.416;12.952;2023-06-24T08:37:01;9.07;;;4.90;;
64375;SDS011;50700;55.416;12.952;2023-06-24T08:39:27;7.75;;;4.85;;
64375;SDS011;50700;55.416;12.952;2023-06-24T08:41:52;8.90;;;5.53;;
64375;SDS011;50700;55.416;12.952;2023-06-24T08:44:17;7.65;;;4.85;;
64375;SDS011;50700;55.416;12.952;2023-06-24T08:46:43;8.80;;;5.10;;
64375;SDS011;50700;55.416;12.952;2023-06-24T08:49:12;8.98;;;5.55;;
64375;SDS011;50700;55.416;12.952;2023-06-24T08:51:41;9.93;;;5.05;;
64375;SDS011;50700;55.416;12.952;2023-06-24T08:54:09;7.82;;;4.95;;
64375;SDS011;50700;55.416;12.952;2023-06-24T08:56:35;8.88;;;4.90;;
64375;SDS011;50700;55.416;12.952;2023-06-24T08:59:04;8.90;;;5.05;;
64375;SDS011;50700;55.416;12.952;2023-06-24T09:01:30;6.72;;;4.53;;
64375;SDS011;50700;55.416;12.952;2023-06-24T09:03:55;12.13;;;5.15;;
64375;SDS011;50700;55.416;12.952;2023-06-24T09:06:21;8.23;;;4.65;;
64375;SDS011;50700;55.416;12.952;2023-06-24T09:08:56;11.90;;;5.30;;
64375;SDS011;50700;55.416;12.952;2023-06-24T09:11:22;14.05;;;5.60;;
64375;SDS011;50700;55.416;12.952;2023-06-24T09:13:50;9.50;;;4.40;;
64375;SDS011;50700;55.416;12.952;2023-06-24T09:16:19;8.35;;;4.90;;
64375;SDS011;50700;55.416;12.952;2023-06-24T09:18:48;8.82;;;4.50;;
64375;SDS011;50700;55.416;12.952;2023-06-24T09:21:14;7.30;;;4.85;;
64375;SDS011;50700;55.416;12.952;2023-06-24T09:23:39;9.13;;;4.88;;
64375;SDS011;50700;55.416;12.952;2023-06-24T09:26:05;7.60;;;4.75;;
64375;SDS011;50700;55.416;12.952;2023-06-24T09:28:30;6.15;;;4.35;;
64375;SDS011;50700;55.416;12.952;2023-06-24T09:31:05;9.35;;;4.70;;
64375;SDS011;50700;55.416;12.952;2023-06-24T09:33:31;9.10;;;4.80;;
64375;SDS011;50700;55.416;12.952;2023-06-24T09:35:56;11.15;;;4.97;;
64375;SDS011;50700;55.416;12.952;2023-06-24T09:38:31;9.32;;;4.38;;
64375;SDS011;50700;55.416;12.952;2023-06-24T09:41:01;8.98;;;4.50;;
64375;SDS011;50700;55.416;12.952;2023-06-24T09:43:27;7.78;;;4.28;;
64375;SDS011;50700;55.416;12.952;2023-06-24T09:45:52;10.73;;;4.93;;
64375;SDS011;50700;55.416;12.952;2023-06-24T09:48:18;7.47;;;4.30;;
64375;SDS011;50700;55.416;12.952;2023-06-24T09:50:43;7.43;;;4.57;;
64375;SDS011;50700;55.416;12.952;2023-06-24T09:53:09;7.28;;;3.80;;
64375;SDS011;50700;55.416;12.952;2023-06-24T09:55:34;7.90;;;4.50;;
64375;SDS011;50700;55.416;12.952;2023-06-24T09:58:00;8.63;;;4.53;;
64375;SDS011;50700;55.416;12.952;2023-06-24T10:00:25;7.97;;;4.65;;
64375;SDS011;50700;55.416;12.952;2023-06-24T10:02:52;7.40;;;4.13;;
64375;SDS011;50700;55.416;12.952;2023-06-24T10:05:19;7.68;;;4.18;;
64375;SDS011;50700;55.416;12.952;2023-06-24T10:07:44;9.23;;;4.38;;
64375;SDS011;50700;55.416;12.952;2023-06-24T10:10:10;6.22;;;3.55;;
64375;SDS011;50700;55.416;12.952;2023-06-24T10:12:35;5.35;;;3.35;;
64375;SDS011;50700;55.416;12.952;2023-06-24T10:15:01;6.50;;;3.63;;
64375;SDS011;50700;55.416;12.952;2023-06-24T10:17:27;7.32;;;3.90;;
64375;SDS011;50700;55.416;12.952;2023-06-24T10:19:53;6.63;;;3.80;;
64375;SDS011;50700;55.416;12.952;2023-06-24T10:22:24;8.00;;;3.92;;
64375;SDS011;50700;55.416;12.952;2023-06-24T10:24:52;7.40;;;4.22;;
64375;SDS011;50700;55.416;12.952;2023-06-24T10:27:18;6.88;;;3.55;;
64375;SDS011;50700;55.416;12.952;2023-06-24T10:29:47;6.03;;;3.60;;
64375;SDS011;50700;55.416;12.952;2023-06-24T10:32:12;4.22;;;3.17;;
64375;SDS011;50700;55.416;12.952;2023-06-24T10:34:39;6.85;;;2.92;;
64375;SDS011;50700;55.416;12.952;2023-06-24T10:37:18;3.33;;;2.70;;
64375;SDS011;50700;55.416;12.952;2023-06-24T10:44:45;5.63;;;3.40;;
64375;SDS011;50700;55.416;12.952;2023-06-24T10:47:11;7.40;;;3.40;;
64375;SDS011;50700;55.416;12.952;2023-06-24T10:49:36;6.68;;;3.42;;
64375;SDS011;50700;55.416;12.952;2023-06-24T10:52:01;7.22;;;3.30;;
64375;SDS011;50700;55.416;12.952;2023-06-24T10:54:27;5.57;;;3.42;;
64375;SDS011;50700;55.416;12.952;2023-06-24T10:56:53;7.32;;;3.05;;
64375;SDS011;50700;55.416;12.952;2023-06-24T10:59:18;7.80;;;3.60;;
64375;SDS011;50700;55.416;12.952;2023-06-24T11:01:53;4.43;;;3.10;;
64375;SDS011;50700;55.416;12.952;2023-06-24T11:04:18;5.60;;;3.33;;
64375;SDS011;50700;55.416;12.952;2023-06-24T11:06:56;5.30;;;3.30;;
64375;SDS011;50700;55.416;12.952;2023-06-24T11:09:21;6.20;;;3.38;;
64375;SDS011;50700;55.416;12.952;2023-06-24T11:11:47;4.60;;;3.22;;
64375;SDS011;50700;55.416;12.952;2023-06-24T11:14:12;5.90;;;3.05;;
64375;SDS011;50700;55.416;12.952;2023-06-24T11:16:40;5.50;;;2.65;;
64375;SDS011;50700;55.416;12.952;2023-06-24T11:19:06;5.05;;;2.85;;
64375;SDS011;50700;55.416;12.952;2023-06-24T11:21:31;3.35;;;2.30;;
64375;SDS011;50700;55.416;12.952;2023-06-24T11:24:00;3.22;;;2.33;;
64375;SDS011;50700;55.416;12.952;2023-06-24T11:26:25;4.07;;;2.30;;
64375;SDS011;50700;55.416;12.952;2023-06-24T11:28:50;3.17;;;2.40;;
64375;SDS011;50700;55.416;12.952;2023-06-24T11:31:16;5.43;;;3.10;;
64375;SDS011;50700;55.416;12.952;2023-06-24T11:33:41;4.63;;;3.20;;
64375;SDS011;50700;55.416;12.952;2023-06-24T11:36:09;3.10;;;2.40;;
64375;SDS011;50700;55.416;12.952;2023-06-24T11:38:36;7.55;;;2.80;;
64375;SDS011;50700;55.416;12.952;2023-06-24T11:41:01;2.75;;;2.45;;
64375;SDS011;50700;55.416;12.952;2023-06-24T11:43:26;3.05;;;2.33;;
64375;SDS011;50700;55.416;12.952;2023-06-24T11:45:52;3.78;;;2.30;;
64375;SDS011;50700;55.416;12.952;2023-06-24T11:48:19;2.40;;;2.20;;
64375;SDS011;50700;55.416;12.952;2023-06-24T11:50:52;3.05;;;2.28;;
64375;SDS011;50700;55.416;12.952;2023-06-24T11:53:22;4.40;;;2.60;;
64375;SDS011;50700;55.416;12.952;2023-06-24T11:55:51;2.95;;;2.28;;
64375;SDS011;50700;55.416;12.952;2023-06-24T11:58:19;3.70;;;2.40;;
64375;SDS011;50700;55.416;12.952;2023-06-24T12:00:44;6.03;;;3.00;;
64375;SDS011;50700;55.416;12.952;2023-06-24T12:03:12;5.82;;;2.75;;
64375;SDS011;50700;55.416;12.952;2023-06-24T12:05:38;4.85;;;2.63;;
64375;SDS011;50700;55.416;12.952;2023-06-24T12:08:06;2.78;;;2.00;;
64375;SDS011;50700;55.416;12.952;2023-06-24T12:10:32;4.85;;;2.78;;
64375;SDS011;50700;55.416;12.952;2023-06-24T12:12:58;3.47;;;2.08;;
64375;SDS011;50700;55.416;12.952;2023-06-24T12:15:24;3.10;;;2.17;;
64375;SDS011;50700;55.416;12.952;2023-06-24T12:17:49;3.47;;;1.98;;
64375;SDS011;50700;55.416;12.952;2023-06-24T12:20:15;2.75;;;2.10;;
64375;SDS011;50700;55.416;12.952;2023-06-24T12:22:41;3.60;;;1.92;;
64375;SDS011;50700;55.416;12.952;2023-06-24T12:25:06;3.22;;;1.77;;
64375;SDS011;50700;55.416;12.952;2023-06-24T12:27:32;3.42;;;2.53;;
64375;SDS011;50700;55.416;12.952;2023-06-24T12:29:57;8.35;;;3.58;;
64375;SDS011;50700;55.416;12.952;2023-06-24T12:32:22;2.58;;;1.92;;
64375;SDS011;50700;55.416;12.952;2023-06-24T12:34:48;3.22;;;1.90;;
64375;SDS011;50700;55.416;12.952;2023-06-24T12:37:13;2.25;;;1.95;;
64375;SDS011;50700;55.416;12.952;2023-06-24T12:39:38;3.55;;;2.30;;
64375;SDS011;50700;55.416;12.952;2023-06-24T12:42:04;2.92;;;2.20;;
64375;SDS011;50700;55.416;12.952;2023-06-24T12:44:31;2.42;;;2.03;;
64375;SDS011;50700;55.416;12.952;2023-06-24T12:46:56;2.95;;;2.13;;
64375;SDS011;50700;55.416;12.952;2023-06-24T12:49:22;2.70;;;2.00;;
64375;SDS011;50700;55.416;12.952;2023-06-24T12:51:47;6.70;;;2.50;;
64375;SDS011;50700;55.416;12.952;2023-06-24T12:54:13;4.32;;;2.38;;
64375;SDS011;50700;55.416;12.952;2023-06-24T12:56:38;4.53;;;2.20;;
64375;SDS011;50700;55.416;12.952;2023-06-24T12:59:03;3.38;;;1.95;;
64375;SDS011;50700;55.416;12.952;2023-06-24T13:01:31;5.30;;;2.03;;
64375;SDS011;50700;55.416;12.952;2023-06-24T13:03:56;2.67;;;1.95;;
64375;SDS011;50700;55.416;12.952;2023-06-24T13:06:22;3.25;;;2.55;;
64375;SDS011;50700;55.416;12.952;2023-06-24T13:08:47;4.80;;;2.60;;
64375;SDS011;50700;55.416;12.952;2023-06-24T13:11:13;2.60;;;2.05;;
64375;SDS011;50700;55.416;12.952;2023-06-24T13:13:38;2.08;;;1.88;;
64375;SDS011;50700;55.416;12.952;2023-06-24T13:16:03;3.78;;;1.88;;
64375;SDS011;50700;55.416;12.952;2023-06-24T13:18:29;2.40;;;1.88;;
64375;SDS011;50700;55.416;12.952;2023-06-24T13:20:54;4.45;;;2.30;;
64375;SDS011;50700;55.416;12.952;2023-06-24T13:23:20;2.40;;;2.10;;
64375;SDS011;50700;55.416;12.952;2023-06-24T13:25:45;4.32;;;2.30;;
64375;SDS011;50700;55.416;12.952;2023-06-24T13:28:10;4.80;;;2.20;;
64375;SDS011;50700;55.416;12.952;2023-06-24T13:30:36;6.18;;;2.75;;
64375;SDS011;50700;55.416;12.952;2023-06-24T13:33:01;2.58;;;2.00;;
64375;SDS011;50700;55.416;12.952;2023-06-24T13:35:26;2.88;;;2.20;;
64375;SDS011;50700;55.416;12.952;2023-06-24T13:37:52;2.67;;;2.10;;
64375;SDS011;50700;55.416;12.952;2023-06-24T13:40:17;2.72;;;2.28;;
64375;SDS011;50700;55.416;12.952;2023-06-24T13:42:43;3.20;;;2.13;;
64375;SDS011;50700;55.416;12.952;2023-06-24T13:45:08;3.55;;;1.98;;
64375;SDS011;50700;55.416;12.952;2023-06-24T13:47:34;4.47;;;2.28;;
64375;SDS011;50700;55.416;12.952;2023-06-24T13:49:59;3.50;;;2.42;;
64375;SDS011;50700;55.416;12.952;2023-06-24T13:52:25;5.00;;;2.47;;
64375;SDS011;50700;55.416;12.952;2023-06-24T13:54:52;2.58;;;2.33;;
64375;SDS011;50700;55.416;12.952;2023-06-24T13:57:17;4.90;;;2.70;;
64375;SDS011;50700;55.416;12.952;2023-06-24T13:59:42;3.45;;;2.70;;
64375;SDS011;50700;55.416;12.952;2023-06-24T14:02:08;5.43;;;2.30;;
64375;SDS011;50700;55.416;12.952;2023-06-24T14:04:34;2.95;;;2.65;;
64375;SDS011;50700;55.416;12.952;2023-06-24T14:07:00;5.35;;;2.72;;
64375;SDS011;50700;55.416;12.952;2023-06-24T14:09:27;4.43;;;2.80;;
64375;SDS011;50700;55.416;12.952;2023-06-24T14:11:52;3.67;;;2.45;;
64375;SDS011;50700;55.416;12.952;2023-06-24T14:14:18;3.10;;;2.60;;
64375;SDS011;50700;55.416;12.952;2023-06-24T14:16:43;3.83;;;2.50;;
64375;SDS011;50700;55.416;12.952;2023-06-24T14:19:09;3.50;;;2.40;;
64375;SDS011;50700;55.416;12.952;2023-06-24T14:21:34;3.10;;;2.42;;
64375;SDS011;50700;55.416;12.952;2023-06-24T14:24:01;4.22;;;2.35;;
64375;SDS011;50700;55.416;12.952;2023-06-24T14:26:26;4.30;;;2.38;;
64375;SDS011;50700;55.416;12.952;2023-06-24T14:28:51;5.65;;;2.80;;
64375;SDS011;50700;55.416;12.952;2023-06-24T14:31:17;8.18;;;3.75;;
64375;SDS011;50700;55.416;12.952;2023-06-24T14:33:42;3.92;;;2.55;;
64375;SDS011;50700;55.416;12.952;2023-06-24T14:36:08;2.60;;;1.95;;
64375;SDS011;50700;55.416;12.952;2023-06-24T14:38:33;4.38;;;2.25;;
64375;SDS011;50700;55.416;12.952;2023-06-24T14:40:59;3.67;;;2.53;;